Wind From: 20-09-2018 10:00 Until: 20:00 warning for: Wind Level: Yellow info button
suomi:
Tuulivaroitus maa-alueille: Lounaistuuli on voimakasta iltapäivällä ja illalla, tuulen nopeus puuskissa 15 m/s.

svenska:
Vindvarning för landområden: På eftermiddagen och kvällen är den sydvästliga vinden kraftigt, i vindbyarna 15 m/s.

english:
Wind warning for land areas: In the afternoon and in the evening, strong winds from southwest may bring strong gusts of 15 m/s. 


Thunder radar more information blitzortung!


Löydät sääaseman tiedot myös:

European Weather Network

Finland Weather Exchange

Weather Underground

AWEKAS



Weather Underground säähistoriasivu

Päivittäin yhteenveto Heinäkuu 1, 2017 Yksiköt:  Metriset    Englantilaiset   Molemmat
« Edellinen Päivä
Seuraava Päivä »
Päivittäin Viikoittain Kuukausittain Vuosittain Mukautettu
  Korkea: Matala: Keskiarvo:
Lämpötila: -17.8 °C -12.6 °C -7.9 °C
Kastepiste: -17.8 °C -13.9 °C -12.7 °C
Kosteus: Humidity % 36 % 59 %
Tuulen nopeus: 0 km/h 0 km/h 0.6 km/h
Tuulenpuuska: 0 km/h - -
Tuuli:- - SE
Ilmanpaine: 0 hPa 33948 hPa -
Sade: 0 mm    
Historical Graphs
 
 
Taulukkotiedot Heinäkuu 1, 2017
Aika Lämpötila Kastepiste Ilmanpaine Tuuli Tuulen nopeus Tuulenpuuska Kosteus Sademäärä (tunneittain)
-17.8 °C -17.8 °C 0 hPa Calm     Humidity % 0 mm
00:00 -9.5 °C -13 °C 34107.2 hPa Calm     66 % 0 mm
00:15 -9.6 °C -13.1 °C 34107.2 hPa Calm     66 % 0 mm
00:30 -9.8 °C -13.2 °C 34097 hPa Calm     67 % 0 mm
00:45 -10.1 °C -13.3 °C 34107.2 hPa Calm     68 % 0 mm
01:00 -10.3 °C -13.3 °C 34107.2 hPa Calm     70 % 0 mm
01:15 -10.6 °C -13.4 °C 34097 hPa Calm     71 % 0 mm
01:30 -11 °C -13.4 °C 34097 hPa Calm   7.7 km/h 75 % 0 mm
01:45 -11.3 °C -13.4 °C 34107.2 hPa Calm     77 % 0 mm
02:00 -11.4 °C -13.6 °C 34107.2 hPa Calm     77 % 0 mm
02:15 -11.5 °C -13.6 °C 34107.2 hPa Calm     78 % 0 mm
02:30 -11.6 °C -13.5 °C 34107.2 hPa Calm     79 % 0 mm
02:45 -11.6 °C -13.6 °C 34107.2 hPa Calm     79 % 0 mm
03:00 -11.7 °C -13.6 °C 34107.2 hPa Calm     80 % 0 mm
03:15 -11.8 °C -13.6 °C 34107.2 hPa Calm     81 % 0 mm
03:30 -11.9 °C -13.6 °C 34107.2 hPa Calm     81 % 0 mm
03:45 -12 °C -13.7 °C 34107.2 hPa Calm   2.6 km/h 81 % 0 mm
04:00 -12.2 °C -13.8 °C 34107.2 hPa Calm     82 % 0 mm
04:15 -12.3 °C -13.9 °C 34107.2 hPa Calm     83 % 0 mm
04:30 -12.4 °C -13.9 °C 34107.2 hPa Calm     84 % 0 mm
04:45 -12.5 °C -13.9 °C 34107.2 hPa Calm     84 % 0 mm
05:00 -12.6 °C -13.9 °C 34107.2 hPa Calm     84 % 0 mm
05:15 -12.5 °C -13.8 °C 34097 hPa Calm     85 % 0 mm
05:30 -12.5 °C -13.8 °C 34097 hPa Calm     85 % 0 mm
05:45 -12.4 °C -13.8 °C 34097 hPa Calm     85 % 0 mm
06:15 -12.1 °C -13.4 °C 34097 hPa Calm     85 % 0 mm
06:30 -11.9 °C -13.4 °C 34097 hPa Calm   5.1 km/h 83 % 0 mm
06:45 -11.7 °C -13.4 °C 34097 hPa Calm   2.6 km/h 82 % 0 mm
07:00 -11.5 °C -13.2 °C 34097 hPa Calm   2.6 km/h 81 % 0 mm
07:15 -11.2 °C -13.2 °C 34097 hPa Calm     79 % 0 mm
07:30 -10.9 °C -13 °C 34097 hPa Calm   5.1 km/h 78 % 0 mm
07:45 -10.7 °C -12.8 °C 34097 hPa Calm     78 % 0 mm
08:00 -10.4 °C -12.7 °C 34097 hPa Calm   2.6 km/h 77 % 0 mm
08:15 -10.2 °C -12.6 °C 34086.9 hPa Calm   2.6 km/h 75 % 0 mm
08:30 -9.8 °C -12.3 °C 34086.9 hPa Calm   2.6 km/h 74 % 0 mm
08:45 -9.1 °C -12.1 °C 34086.9 hPa Calm   5.1 km/h 71 % 0 mm
09:00 -8.5 °C -11.9 °C 34086.9 hPa Calm   2.6 km/h 67 % 0 mm
09:15 -7.9 °C -11.8 °C 34086.9 hPa Calm   2.6 km/h 63 % 0 mm
09:30 -7.4 °C -11.8 °C 34073.3 hPa Calm   5.1 km/h 60 % 0 mm
09:45 -7.2 °C -11.4 °C 34073.3 hPa Calm   2.6 km/h 61 % 0 mm
10:00 -7.1 °C -11.3 °C 34073.3 hPa Calm   7.7 km/h 61 % 0 mm
10:15 -6.8 °C -11.7 °C 34073.3 hPa WSW 2.6 km/h 10.3 km/h 57 % 0 mm
10:30 -6.7 °C -11.7 °C 34073.3 hPa Calm   5.1 km/h 56 % 0 mm
10:45 -6.6 °C -11.9 °C 34063.2 hPa ESE 2.6 km/h 15.6 km/h 54 % 0 mm
11:00 -6.4 °C -11.6 °C 34063.2 hPa Calm   10.3 km/h 55 % 0 mm
11:15 -6.2 °C -11.5 °C 34049.6 hPa Calm   5.1 km/h 54 % 0 mm
11:30 -6 °C -12.2 °C 34049.6 hPa Calm   12.9 km/h 49 % 0 mm
11:45 -5.7 °C -11.8 °C 34039.5 hPa Calm   12.9 km/h 50 % 0 mm
12:00 -5.5 °C -11.6 °C 34039.5 hPa Calm   5.1 km/h 50 % 0 mm
12:15 -5.4 °C -11.3 °C 34039.5 hPa Calm   5.1 km/h 51 % 0 mm
12:30 -5.4 °C -11.6 °C 34029.3 hPa Calm   10.3 km/h 49 % 0 mm
12:45 -5.4 °C -11.9 °C 34029.3 hPa Calm   7.7 km/h 47 % 0 mm
13:00 -5.2 °C -11.4 °C 34029.3 hPa Calm   7.7 km/h 49 % 0 mm
13:15 -5.1 °C -12.2 °C 34029.3 hPa NE 2.6 km/h 15.6 km/h 44 % 0 mm
13:30 -4.9 °C -11.9 °C 34015.8 hPa Calm   18.2 km/h 45 % 0 mm
13:45 -4.8 °C -12.1 °C 34015.8 hPa NNW 2.6 km/h 10.3 km/h 44 % 0 mm
14:00 -4.8 °C -11.3 °C 34015.8 hPa Calm   7.7 km/h 48 % 0 mm
14:15 -4.6 °C -12.4 °C 34015.8 hPa NNE 2.6 km/h 18.2 km/h 41 % 0 mm
14:30 -4.4 °C -12.8 °C 34015.8 hPa WNW 2.6 km/h 15.6 km/h 38 % 0 mm
14:45 -4.4 °C -12.2 °C 34005.6 hPa ENE 2.6 km/h 12.9 km/h 41 % 0 mm
15:00 -4.4 °C -12.2 °C 34005.6 hPa West 2.6 km/h 18.2 km/h 41 % 0 mm
15:15 -4.2 °C -12.7 °C 33992.1 hPa West 2.6 km/h 12.9 km/h 38 % 0 mm
15:30 -4.1 °C -12.2 °C 33992.1 hPa NNE 2.6 km/h 18.2 km/h 40 % 0 mm
15:45 -4.1 °C -12.2 °C 33992.1 hPa East 2.6 km/h 15.6 km/h 40 % 0 mm
16:00 -4.2 °C -12.9 °C 33981.9 hPa Calm   12.9 km/h 37 % 0 mm
16:15 -4.2 °C -12.3 °C 33981.9 hPa North 2.6 km/h 18.2 km/h 40 % 0 mm
16:30 -4.2 °C -11.8 °C 33981.9 hPa SE 2.6 km/h 12.9 km/h 42 % 0 mm
16:45 -4.2 °C -13.1 °C 33971.7 hPa NW 2.6 km/h 15.6 km/h 36 % 0 mm
17:00 -4.2 °C -12.9 °C 33971.7 hPa SE 2.6 km/h 15.6 km/h 37 % 0 mm
17:30 -4.3 °C -12.3 °C 33958.2 hPa SE 2.6 km/h 18.2 km/h 40 % 0 mm
17:45 -4.2 °C -12.2 °C 33958.2 hPa South 2.6 km/h 10.3 km/h 40 % 0 mm
18:00 -4.2 °C -12.3 °C 33958.2 hPa NNE 2.6 km/h 7.7 km/h 40 % 0 mm
18:15 -4.3 °C -12.4 °C 33958.2 hPa Calm   10.3 km/h 40 % 0 mm
18:30 -4.3 °C -11.9 °C 33958.2 hPa Calm   10.3 km/h 42 % 0 mm
18:45 -4.4 °C -12.7 °C 33958.2 hPa East 2.6 km/h 12.9 km/h 39 % 0 mm
19:00 -4.6 °C -12.3 °C 33958.2 hPa East 2.6 km/h 10.3 km/h 41 % 0 mm
19:15 -4.7 °C -12.7 °C 33958.2 hPa ENE 2.6 km/h 15.6 km/h 40 % 0 mm
19:30 -4.8 °C -13 °C 33958.2 hPa SE 2.6 km/h 18.2 km/h 39 % 0 mm
19:45 -4.8 °C -12.1 °C 33948 hPa Calm   7.7 km/h 44 % 0 mm
20:00 -5.1 °C -12.6 °C 33948 hPa Calm   12.9 km/h 42 % 0 mm
20:15 -5.2 °C -12.9 °C 33948 hPa Calm   15.6 km/h 41 % 0 mm
20:30 -5.5 °C -12.7 °C 33958.2 hPa Calm   10.3 km/h 44 % 0 mm
20:45 -5.8 °C -12.5 °C 33948 hPa Calm   12.9 km/h 46 % 0 mm
21:00 -6 °C -12.2 °C 33948 hPa Calm   5.1 km/h 49 % 0 mm
21:15 -6.3 °C -12.1 °C 33948 hPa Calm   7.7 km/h 51 % 0 mm
21:30 -6.6 °C -12.1 °C 33948 hPa Calm   5.1 km/h 53 % 0 mm
21:45 -6.8 °C -12.3 °C 33948 hPa Calm     53 % 0 mm
22:00 -7 °C -12.1 °C 33948 hPa Calm     55 % 0 mm
22:15 -7.2 °C -12.1 °C 33958.2 hPa Calm     57 % 0 mm
22:30 -7.4 °C -12 °C 33958.2 hPa Calm     59 % 0 mm
22:45 -7.7 °C -12.1 °C 33958.2 hPa Calm     60 % 0 mm
23:00 -7.9 °C -11.9 °C 33958.2 hPa Calm     63 % 0 mm
23:15 -8.4 °C -11.9 °C 33958.2 hPa Calm     66 % 0 mm
23:30 -8.9 °C -11.9 °C 33971.7 hPa Calm     70 % 0 mm
23:45 -9.4 °C -12.2 °C 33971.7 hPa Calm     72 % 0 mm
Esan sääasema
Terveisin Weather Underground - 2.75 mb

Alkuperäinen skripti  Jim McMurry - jmcmurry@mwt.net Sovitettu myös templatelle  Wim van der Kuil - Leuven-Template.eu

Laitteet joita käytämme:

Sääasema
Davis VP2

Sääasemaohjelma
Cumulus

Sääaseman tietokone
Asus EeePC

Palveluntarjoaja
Suncomet

Davis VP2

Cumulus

Asus EeePC

Suncomet